Time;durP1;ratioP1;P1;durP2;ratioP2;P2;SDS_P1;SDS_P2;PMS_P1;PMS_P2;Temp;Humidity;BMP_temperature;BMP_pressure;BME280_temperature;BME280_humidity;BME280_pressure;Samples;Min_cycle;Max_cycle;Signal;HPM_P1;HPM_P2
2022/10/26 00:00:42;;;;;;;23.00;15.93;;;10.20;99.90;;;;;;4964270;28;20074;-66
2022/10/26 00:03:08;;;;;;;20.42;14.80;;;10.40;99.90;;;;;;4945357;28;20046;-64
2022/10/26 00:05:34;;;;;;;22.60;15.75;;;10.20;99.90;;;;;;4945680;28;20049;-65
2022/10/26 00:08:00;;;;;;;21.83;15.50;;;10.30;99.90;;;;;;4964371;28;20506;-65
2022/10/26 00:10:26;;;;;;;19.30;14.25;;;10.20;99.90;;;;;;4962960;28;20108;-65
2022/10/26 00:12:52;;;;;;;25.30;15.38;;;10.20;99.90;;;;;;4963479;28;20257;-65
2022/10/26 00:15:19;;;;;;;22.52;16.40;;;10.30;99.90;;;;;;4963523;28;20050;-66
2022/10/26 00:17:46;;;;;;;22.63;15.05;;;10.10;99.90;;;;;;4962628;28;20089;-66
2022/10/26 00:20:12;;;;;;;19.95;15.32;;;10.20;99.90;;;;;;4945986;28;20057;-66
2022/10/26 00:22:38;;;;;;;23.88;16.15;;;10.10;99.90;;;;;;4963140;28;20514;-65
2022/10/26 00:25:04;;;;;;;23.73;16.45;;;10.30;99.90;;;;;;4966729;28;20042;-64
2022/10/26 00:27:32;;;;;;;21.65;14.85;;;10.10;99.90;;;;;;4966383;28;20454;-65
2022/10/26 00:29:57;;;;;;;19.83;15.07;;;10.20;99.90;;;;;;4967166;28;20061;-65
2022/10/26 00:32:23;;;;;;;26.30;16.25;;;10.00;99.90;;;;;;4966234;28;20038;-64
2022/10/26 00:34:49;;;;;;;21.25;15.07;;;10.30;99.90;;;;;;4949408;28;20070;-65
2022/10/26 00:37:14;;;;;;;21.10;15.60;;;10.10;99.90;;;;;;4949477;28;20077;-64
2022/10/26 00:39:40;;;;;;;22.60;15.90;;;10.10;99.90;;;;;;4967370;28;20035;-65
2022/10/26 00:42:05;;;;;;;22.45;15.80;;;10.30;99.90;;;;;;4933608;28;20679;-64
2022/10/26 00:44:56;;;;;;;21.63;15.48;;;10.30;99.90;;;;;;4967317;28;20042;-65
2022/10/26 00:47:38;;;;;;;26.00;16.58;;;10.40;99.90;;;;;;4966375;28;20099;-64
2022/10/26 00:50:14;;;;;;;24.60;16.88;;;10.10;99.90;;;;;;4965968;28;20086;-65
2022/10/26 00:52:40;;;;;;;24.92;15.95;;;10.20;99.90;;;;;;4949231;28;20133;-64
2022/10/26 00:55:06;;;;;;;22.42;16.00;;;10.30;99.90;;;;;;4965902;28;20047;-65
2022/10/26 00:57:34;;;;;;;22.08;16.27;;;10.10;99.90;;;;;;4965577;28;20047;-65
2022/10/26 01:00:00;;;;;;;21.20;15.32;;;10.30;99.90;;;;;;4949247;28;20042;-64
2022/10/26 01:02:26;;;;;;;23.73;15.82;;;10.30;99.90;;;;;;4965713;28;20723;-64
2022/10/26 01:04:53;;;;;;;23.08;16.55;;;10.20;99.90;;;;;;4948145;28;20043;-66
2022/10/26 01:07:19;;;;;;;23.02;16.00;;;10.20;99.90;;;;;;4966090;28;20538;-64
2022/10/26 01:09:45;;;;;;;26.90;16.38;;;10.00;99.90;;;;;;4967310;28;20089;-64
2022/10/26 01:12:11;;;;;;;22.63;15.55;;;10.00;99.90;;;;;;4966452;28;20083;-65
2022/10/26 01:14:37;;;;;;;25.10;17.00;;;10.20;99.90;;;;;;4965741;28;20150;-65
2022/10/26 01:17:17;;;;;;;28.65;17.83;;;10.10;99.90;;;;;;4965613;28;20051;-66
2022/10/26 01:19:56;;;;;;;26.90;18.38;;;9.40;99.90;;;;;;4949717;28;20043;-64
2022/10/26 01:22:40;;;;;;;23.33;18.35;;;9.90;99.90;;;;;;4966084;28;20069;-66
2022/10/26 01:25:12;;;;;;;31.23;19.83;;;10.00;99.90;;;;;;4948467;28;20085;-66
2022/10/26 01:27:40;;;;;;;26.35;18.83;;;9.90;99.90;;;;;;4966103;28;20042;-64
2022/10/26 01:30:14;;;;;;;27.38;18.98;;;9.90;99.90;;;;;;4966782;28;20054;-66
2022/10/26 01:32:58;;;;;;;26.85;19.27;;;9.80;99.90;;;;;;4964856;28;20038;-64
2022/10/26 01:36:12;;;;;;;26.38;19.88;;;9.80;99.90;;;;;;4964737;28;20086;-66
2022/10/26 01:38:56;;;;;;;25.67;18.38;;;10.00;99.90;;;;;;4948473;28;20771;-65
2022/10/26 01:41:28;;;;;;;22.00;18.08;;;9.80;99.90;;;;;;4965142;28;20047;-64
2022/10/26 01:44:19;;;;;;;27.60;19.08;;;9.70;99.90;;;;;;4965875;28;20122;-66
2022/10/26 01:46:48;;;;;;;26.55;18.45;;;9.90;99.90;;;;;;4948139;28;20919;-65
2022/10/26 01:49:18;;;;;;;29.23;17.98;;;9.70;99.90;;;;;;4966548;28;20126;-66
2022/10/26 01:51:46;;;;;;;26.48;18.77;;;9.90;99.90;;;;;;4948914;28;20058;-65
2022/10/26 01:54:12;;;;;;;30.48;19.55;;;9.70;99.90;;;;;;4965840;28;20070;-65
2022/10/26 01:56:40;;;;;;;29.10;19.27;;;9.60;99.90;;;;;;4965809;28;20098;-65
2022/10/26 01:59:20;;;;;;;27.70;18.92;;;9.70;99.90;;;;;;4965541;28;20280;-65
2022/10/26 02:01:56;;;;;;;24.63;17.65;;;9.50;99.90;;;;;;4965399;28;20042;-65
2022/10/26 02:04:40;;;;;;;25.83;18.15;;;9.50;99.90;;;;;;4947304;28;20070;-66
2022/10/26 02:07:18;;;;;;;24.10;17.45;;;9.70;99.90;;;;;;4965214;28;20042;-64
2022/10/26 02:10:05;;;;;;;25.48;18.58;;;9.40;99.90;;;;;;4947941;28;20047;-64
2022/10/26 02:12:33;;;;;;;25.73;17.63;;;9.60;99.90;;;;;;4947805;28;20593;-66
2022/10/26 02:17:34;;;;;;;24.88;16.95;;;9.50;99.90;;;;;;4904246;29;20052;-64
2022/10/26 02:20:06;;;;;;;22.77;16.20;;;9.30;99.90;;;;;;4899597;29;20132;-66
2022/10/26 02:22:44;;;;;;;21.98;16.35;;;9.50;99.90;;;;;;4889246;29;20049;-65
2022/10/26 02:25:31;;;;;;;24.83;16.38;;;9.30;99.90;;;;;;4871628;29;20169;-65
2022/10/26 02:28:05;;;;;;;22.08;15.98;;;9.30;99.90;;;;;;4888900;29;20049;-64
2022/10/26 02:30:32;;;;;;;20.20;15.98;;;9.40;99.90;;;;;;4888209;29;20084;-65
2022/10/26 02:32:58;;;;;;;23.35;15.35;;;9.30;99.90;;;;;;4887625;29;20182;-64
2022/10/26 02:35:28;;;;;;;21.88;15.77;;;9.40;99.90;;;;;;4888977;29;20100;-64
2022/10/26 02:37:58;;;;;;;23.05;14.93;;;9.40;99.90;;;;;;4888251;29;20045;-66
2022/10/26 02:40:26;;;;;;;22.55;15.98;;;9.40;99.90;;;;;;4889376;29;20041;-64
2022/10/26 02:42:54;;;;;;;23.52;16.90;;;9.40;99.90;;;;;;4888605;29;20123;-64
2022/10/26 02:45:24;;;;;;;24.77;16.80;;;9.30;99.90;;;;;;4888246;29;20048;-66
2022/10/26 02:47:51;;;;;;;24.30;15.85;;;9.10;99.90;;;;;;4887992;29;20076;-64
2022/10/26 02:50:22;;;;;;;26.52;16.67;;;9.10;99.90;;;;;;4888555;29;20056;-64
2022/10/26 02:53:09;;;;;;;24.02;16.83;;;9.30;99.90;;;;;;4887400;29;20041;-65
2022/10/26 02:55:42;;;;;;;24.27;17.67;;;9.20;99.90;;;;;;4887797;29;20072;-66
2022/10/26 02:58:15;;;;;;;23.63;17.08;;;9.10;99.90;;;;;;4887430;29;20056;-65
2022/10/26 03:00:42;;;;;;;27.38;18.00;;;9.20;99.90;;;;;;4905456;29;20131;-65
2022/10/26 03:03:08;;;;;;;25.65;18.10;;;9.20;99.90;;;;;;4906436;29;20044;-66
2022/10/26 03:05:35;;;;;;;28.92;18.70;;;9.00;99.90;;;;;;4905440;29;20107;-64
2022/10/26 03:08:02;;;;;;;24.85;18.35;;;9.20;99.90;;;;;;4907510;29;20170;-66
2022/10/26 03:10:28;;;;;;;27.15;18.55;;;9.10;99.90;;;;;;4907346;29;20059;-66
2022/10/26 03:12:54;;;;;;;28.73;18.83;;;9.20;99.90;;;;;;4905858;29;20044;-64
2022/10/26 03:15:20;;;;;;;26.92;19.40;;;9.20;99.90;;;;;;4889516;29;20041;-64
2022/10/26 03:17:46;;;;;;;30.05;20.20;;;9.00;99.90;;;;;;4906008;29;20761;-66
2022/10/26 03:20:12;;;;;;;26.13;19.60;;;9.00;99.90;;;;;;4907028;29;20047;-66
2022/10/26 03:22:37;;;;;;;29.55;19.73;;;9.00;99.90;;;;;;4904785;29;20048;-65
2022/10/26 03:25:04;;;;;;;28.58;19.77;;;8.90;99.90;;;;;;4889061;29;20048;-65
2022/10/26 03:27:29;;;;;;;30.83;20.98;;;9.00;99.90;;;;;;4905523;29;20609;-65
2022/10/26 03:29:56;;;;;;;26.77;20.45;;;9.10;99.90;;;;;;4906508;29;20048;-66
2022/10/26 03:32:22;;;;;;;34.78;21.55;;;9.20;99.90;;;;;;4905844;29;20062;-65
2022/10/26 03:34:47;;;;;;;31.77;21.35;;;9.00;99.90;;;;;;4905966;29;20704;-64
2022/10/26 03:37:13;;;;;;;33.08;21.40;;;9.00;99.90;;;;;;4906448;29;20036;-66
2022/10/26 03:39:39;;;;;;;29.52;20.10;;;9.00;99.90;;;;;;4906568;29;20044;-66
2022/10/26 03:42:04;;;;;;;29.13;20.70;;;9.10;99.90;;;;;;4906721;29;20051;-64
2022/10/26 03:44:30;;;;;;;28.42;20.77;;;9.20;99.90;;;;;;4906676;29;20151;-64
2022/10/26 03:46:56;;;;;;;34.13;23.02;;;9.20;99.90;;;;;;4905501;29;20535;-66
2022/10/26 03:49:21;;;;;;;35.35;23.02;;;9.30;99.90;;;;;;4906203;29;20087;-66
2022/10/26 03:51:47;;;;;;;31.30;22.25;;;9.10;99.90;;;;;;4906862;29;20080;-66
2022/10/26 03:54:12;;;;;;;32.42;23.00;;;9.00;99.90;;;;;;4906399;29;20099;-64
2022/10/26 03:56:38;;;;;;;32.83;22.83;;;9.00;99.90;;;;;;4905709;29;20044;-64
2022/10/26 03:59:04;;;;;;;29.35;22.25;;;9.10;99.90;;;;;;4906813;29;20119;-65
2022/10/26 04:01:29;;;;;;;30.98;22.73;;;9.10;99.90;;;;;;4893201;29;20052;-66
2022/10/26 04:03:55;;;;;;;35.92;24.30;;;9.40;99.90;;;;;;4892904;29;20104;-65
2022/10/26 04:06:20;;;;;;;34.10;23.48;;;9.30;99.90;;;;;;4908577;29;20048;-65
2022/10/26 04:08:46;;;;;;;34.95;24.30;;;9.20;99.90;;;;;;4909876;29;20048;-65
2022/10/26 04:11:12;;;;;;;37.22;25.17;;;9.10;99.90;;;;;;4909548;29;20059;-66
2022/10/26 04:13:37;;;;;;;37.60;25.17;;;9.10;99.90;;;;;;4909056;29;20090;-65
2022/10/26 04:16:03;;;;;;;35.22;24.98;;;9.10;99.90;;;;;;4908338;29;20085;-65
2022/10/26 04:18:29;;;;;;;38.22;25.05;;;9.20;99.90;;;;;;4909785;29;20119;-65
2022/10/26 04:20:54;;;;;;;38.13;24.55;;;9.10;99.90;;;;;;4910182;29;20059;-66
2022/10/26 04:23:20;;;;;;;35.50;24.42;;;9.20;99.90;;;;;;4908565;29;20052;-66
2022/10/26 04:25:46;;;;;;;36.92;25.05;;;9.20;99.90;;;;;;4909510;29;20490;-64
2022/10/26 04:28:12;;;;;;;36.97;26.02;;;9.20;99.90;;;;;;4908905;29;20095;-64
2022/10/26 04:30:39;;;;;;;37.00;25.63;;;9.20;99.90;;;;;;4909814;29;20091;-66
2022/10/26 04:33:05;;;;;;;34.80;24.13;;;9.00;99.90;;;;;;4875406;29;20141;-65
2022/10/26 04:35:31;;;;;;;35.45;23.63;;;9.00;99.90;;;;;;4909380;29;20040;-65
2022/10/26 04:37:59;;;;;;;38.33;24.55;;;9.20;99.90;;;;;;4909662;29;20447;-65
2022/10/26 04:40:25;;;;;;;37.22;24.90;;;9.10;99.90;;;;;;4909208;29;20040;-66
2022/10/26 04:42:50;;;;;;;34.75;23.75;;;9.30;99.90;;;;;;4908369;29;20822;-66
2022/10/26 04:45:16;;;;;;;37.40;24.25;;;9.20;99.90;;;;;;4909167;29;20043;-65
2022/10/26 04:47:42;;;;;;;35.92;24.55;;;9.10;99.90;;;;;;4908713;29;20032;-65
2022/10/26 04:50:10;;;;;;;40.05;24.85;;;9.30;99.90;;;;;;4908572;29;20575;-66
2022/10/26 04:52:35;;;;;;;31.58;22.75;;;9.10;99.90;;;;;;4909691;29;20076;-64
2022/10/26 04:55:04;;;;;;;35.17;23.20;;;9.10;99.90;;;;;;4909144;29;20056;-64
2022/10/26 04:57:32;;;;;;;34.83;24.23;;;9.10;99.90;;;;;;4909148;29;20064;-66
2022/10/26 04:59:58;;;;;;;34.33;22.95;;;9.10;99.90;;;;;;4909390;29;20042;-65
2022/10/26 05:02:23;;;;;;;33.65;22.08;;;9.20;99.90;;;;;;4907757;29;20052;-64
2022/10/26 05:04:49;;;;;;;33.97;21.88;;;9.40;99.90;;;;;;4890733;29;20060;-65
2022/10/26 05:07:15;;;;;;;33.00;21.98;;;9.40;99.90;;;;;;4907553;29;20380;-66
2022/10/26 05:09:40;;;;;;;34.25;22.08;;;9.30;99.90;;;;;;4907641;29;20058;-65
2022/10/26 05:12:06;;;;;;;35.53;22.80;;;9.30;99.90;;;;;;4891373;29;20555;-65
2022/10/26 05:14:32;;;;;;;34.85;22.40;;;9.20;99.90;;;;;;4908313;29;20052;-64
2022/10/26 05:16:57;;;;;;;32.67;22.38;;;9.30;99.90;;;;;;4907375;29;20427;-66
2022/10/26 05:19:23;;;;;;;33.90;22.42;;;9.40;99.90;;;;;;4908475;29;20097;-65
2022/10/26 05:21:52;;;;;;;35.92;22.15;;;9.30;99.90;;;;;;4908201;29;20047;-65
2022/10/26 05:24:17;;;;;;;31.83;21.73;;;9.20;99.90;;;;;;4906624;29;20119;-66
2022/10/26 05:26:43;;;;;;;27.70;20.33;;;9.20;99.90;;;;;;4907637;29;20513;-66
2022/10/26 05:29:09;;;;;;;30.30;21.92;;;9.30;99.90;;;;;;4907762;29;20098;-64
2022/10/26 05:31:34;;;;;;;32.03;21.23;;;9.20;99.90;;;;;;4906498;29;20131;-65
2022/10/26 05:34:00;;;;;;;32.53;22.13;;;9.40;99.90;;;;;;4908420;29;20412;-64
2022/10/26 05:36:26;;;;;;;28.70;20.73;;;9.20;99.90;;;;;;4907953;29;20467;-64
2022/10/26 05:38:51;;;;;;;32.88;23.38;;;9.30;99.90;;;;;;4907194;29;20059;-65
2022/10/26 05:41:17;;;;;;;32.10;22.73;;;9.30;99.90;;;;;;4906863;29;20633;-65
2022/10/26 05:43:45;;;;;;;31.67;22.65;;;9.50;99.90;;;;;;4907544;29;20040;-65
2022/10/26 05:46:11;;;;;;;31.73;22.92;;;9.50;99.90;;;;;;4911641;29;20099;-66
2022/10/26 05:48:36;;;;;;;32.38;21.55;;;9.50;99.90;;;;;;4909692;29;20043;-66
2022/10/26 05:51:02;;;;;;;31.25;21.98;;;9.30;99.90;;;;;;4926310;29;20050;-64
2022/10/26 05:53:28;;;;;;;31.17;21.58;;;9.50;99.90;;;;;;4927646;29;20043;-65
2022/10/26 05:55:55;;;;;;;29.30;21.80;;;9.50;99.90;;;;;;4926937;29;20155;-65
2022/10/26 05:58:21;;;;;;;36.38;23.10;;;9.30;99.90;;;;;;4925825;29;20050;-66
2022/10/26 06:00:59;;;;;;;30.20;21.63;;;9.40;99.90;;;;;;4926736;29;20044;-64
2022/10/26 06:03:38;;;;;;;34.65;22.38;;;9.40;99.90;;;;;;4926226;29;20047;-64
2022/10/26 06:06:06;;;;;;;33.55;22.52;;;9.50;99.90;;;;;;4894197;29;20067;-64
2022/10/26 06:08:32;;;;;;;29.23;21.27;;;9.60;99.90;;;;;;4908401;29;20048;-65
2022/10/26 06:10:58;;;;;;;29.65;20.48;;;9.40;99.90;;;;;;4907274;29;20052;-66
2022/10/26 06:13:24;;;;;;;30.25;20.73;;;9.40;99.90;;;;;;4907183;29;20418;-65
2022/10/26 06:16:05;;;;;;;29.80;20.50;;;9.40;99.90;;;;;;4906700;29;20067;-65
2022/10/26 06:18:51;;;;;;;27.38;19.73;;;9.70;99.90;;;;;;4912161;29;20052;-65
2022/10/26 06:22:01;;;;;;;29.40;18.98;;;9.60;99.90;;;;;;4925789;29;20055;-66
2022/10/26 06:24:59;;;;;;;28.15;19.52;;;9.50;99.90;;;;;;4926186;29;20051;-66
2022/10/26 06:27:49;;;;;;;28.67;19.30;;;9.80;99.90;;;;;;4925813;29;20742;-66
2022/10/26 06:30:22;;;;;;;29.52;18.77;;;9.60;99.90;;;;;;4925930;29;20482;-64
2022/10/26 06:32:49;;;;;;;26.95;18.52;;;9.80;99.90;;;;;;4909331;29;20083;-66
2022/10/26 06:35:34;;;;;;;26.02;18.42;;;9.70;99.90;;;;;;4909423;29;20043;-65
2022/10/26 06:38:03;;;;;;;28.77;17.30;;;9.60;99.90;;;;;;4926865;29;20107;-64
2022/10/26 06:40:32;;;;;;;23.63;17.85;;;9.80;99.90;;;;;;4926907;29;20414;-66
2022/10/26 06:42:59;;;;;;;24.80;17.13;;;9.80;99.90;;;;;;4925773;29;20058;-64
2022/10/26 06:45:25;;;;;;;26.65;17.15;;;9.70;99.90;;;;;;4925913;29;20044;-65
2022/10/26 06:48:01;;;;;;;22.85;16.48;;;9.60;99.90;;;;;;4926147;29;20060;-65
2022/10/26 06:50:41;;;;;;;24.20;16.48;;;9.70;99.90;;;;;;4909808;29;20058;-65
2022/10/26 06:53:26;;;;;;;21.70;15.30;;;9.90;99.90;;;;;;4908765;29;20095;-66
2022/10/26 06:55:52;;;;;;;21.57;15.60;;;9.90;99.90;;;;;;4925390;29;20118;-66
2022/10/26 06:58:20;;;;;;;20.20;14.43;;;9.70;99.90;;;;;;4926183;29;20087;-64
2022/10/26 07:00:48;;;;;;;21.95;14.27;;;10.00;99.90;;;;;;4909179;29;20178;-65
2022/10/26 07:03:15;;;;;;;18.88;14.02;;;9.90;99.90;;;;;;4925268;29;20036;-66
2022/10/26 07:05:41;;;;;;;20.15;13.60;;;9.90;99.90;;;;;;4895549;29;20093;-65
2022/10/26 07:08:07;;;;;;;21.80;13.57;;;10.10;99.90;;;;;;4906744;29;20047;-65
2022/10/26 07:10:37;;;;;;;17.42;13.20;;;10.00;99.90;;;;;;4906852;29;20440;-65
2022/10/26 07:13:04;;;;;;;18.23;12.05;;;10.10;99.90;;;;;;4906130;29;20463;-64
2022/10/26 07:15:29;;;;;;;19.25;12.98;;;10.10;99.90;;;;;;4889571;29;20056;-65
2022/10/26 07:17:55;;;;;;;15.52;12.07;;;10.40;99.90;;;;;;4906742;29;20412;-66
2022/10/26 07:20:21;;;;;;;16.50;12.63;;;10.20;99.90;;;;;;4906922;29;20102;-64
2022/10/26 07:22:55;;;;;;;15.88;12.00;;;10.40;99.90;;;;;;4888886;29;20080;-65
2022/10/26 07:25:22;;;;;;;15.90;11.63;;;10.20;99.90;;;;;;4905371;29;20044;-66
2022/10/26 07:27:47;;;;;;;17.80;12.80;;;10.50;99.90;;;;;;4906528;29;20048;-65
2022/10/26 07:30:13;;;;;;;16.33;12.52;;;10.50;99.90;;;;;;4906019;29;20471;-64
2022/10/26 07:32:39;;;;;;;15.77;11.70;;;10.30;99.90;;;;;;4904904;29;20551;-66
2022/10/26 07:35:05;;;;;;;17.52;13.05;;;10.30;99.90;;;;;;4890005;29;20044;-64
2022/10/26 07:37:30;;;;;;;17.83;12.65;;;10.30;99.90;;;;;;4905519;29;20055;-65
2022/10/26 07:39:56;;;;;;;22.35;13.50;;;10.40;99.90;;;;;;4906880;29;20407;-65
2022/10/26 07:42:22;;;;;;;16.23;12.77;;;10.50;99.90;;;;;;4906606;29;20576;-66
2022/10/26 07:44:47;;;;;;;16.33;12.05;;;10.50;99.90;;;;;;4906968;29;20051;-66
2022/10/26 07:47:13;;;;;;;16.52;13.02;;;10.60;99.90;;;;;;4906025;29;20059;-66
2022/10/26 07:49:38;;;;;;;19.00;12.95;;;10.40;99.90;;;;;;4890036;29;20048;-66
2022/10/26 07:52:04;;;;;;;19.15;12.23;;;10.40;99.90;;;;;;4889595;29;20549;-65
2022/10/26 07:54:31;;;;;;;18.40;12.27;;;10.50;99.90;;;;;;4906548;29;20511;-66
2022/10/26 07:56:56;;;;;;;17.70;12.93;;;10.50;99.90;;;;;;4906405;29;20134;-66
2022/10/26 07:59:22;;;;;;;18.80;13.43;;;10.50;99.90;;;;;;4906644;29;20115;-65
2022/10/26 08:01:48;;;;;;;19.83;12.98;;;10.80;99.90;;;;;;4905673;29;20968;-64
2022/10/26 08:04:14;;;;;;;16.48;12.05;;;10.70;99.90;;;;;;4889122;29;20131;-65
2022/10/26 08:06:40;;;;;;;17.05;12.85;;;10.60;99.90;;;;;;4889321;29;20044;-65
2022/10/26 08:09:06;;;;;;;19.17;11.27;;;10.90;99.90;;;;;;4906514;29;20040;-64
2022/10/26 08:11:31;;;;;;;12.68;10.77;;;10.80;99.90;;;;;;4906835;29;20051;-62
2022/10/26 08:13:57;;;;;;;16.55;11.32;;;11.10;99.90;;;;;;4906318;29;20454;-65
2022/10/26 08:16:23;;;;;;;14.30;11.02;;;10.90;99.90;;;;;;4906141;29;20057;-65
2022/10/26 08:18:50;;;;;;;14.07;10.73;;;11.10;99.90;;;;;;4903161;29;20503;-65
2022/10/26 08:21:16;;;;;;;13.90;11.15;;;11.30;99.90;;;;;;4905564;29;20052;-64
2022/10/26 08:23:42;;;;;;;16.90;11.43;;;11.40;99.90;;;;;;4905351;29;20682;-66
2022/10/26 08:26:11;;;;;;;14.13;10.27;;;11.40;99.90;;;;;;4925425;29;20095;-65
2022/10/26 08:28:38;;;;;;;13.95;9.73;;;11.80;99.90;;;;;;4924281;29;20035;-64
2022/10/26 08:31:04;;;;;;;13.50;10.38;;;11.60;99.90;;;;;;4923579;29;20138;-65
2022/10/26 08:33:29;;;;;;;13.80;10.40;;;11.90;99.90;;;;;;4907714;29;20047;-65
2022/10/26 08:35:59;;;;;;;12.13;9.15;;;12.10;99.90;;;;;;4925324;29;20048;-65
2022/10/26 08:38:25;;;;;;;12.48;8.93;;;12.20;99.90;;;;;;4924247;29;20058;-65
2022/10/26 08:40:52;;;;;;;11.93;8.50;;;12.30;99.90;;;;;;4925134;29;20471;-65
2022/10/26 08:43:28;;;;;;;11.40;7.88;;;12.50;99.90;;;;;;4925208;29;20108;-66
2022/10/26 08:46:14;;;;;;;12.10;7.80;;;12.50;99.90;;;;;;4926492;29;20047;-66
2022/10/26 08:48:46;;;;;;;10.30;7.88;;;12.60;99.90;;;;;;4928482;29;20039;-65
2022/10/26 08:51:39;;;;;;;12.52;7.97;;;12.80;99.90;;;;;;4927819;29;20058;-64
2022/10/26 08:54:18;;;;;;;9.98;7.55;;;12.80;99.90;;;;;;4893283;29;20142;-65
2022/10/26 08:56:53;;;;;;;8.43;6.88;;;12.90;99.90;;;;;;4927354;29;20051;-64
2022/10/26 08:59:42;;;;;;;11.50;7.05;;;13.20;99.90;;;;;;4927971;29;20039;-64
2022/10/26 09:02:16;;;;;;;8.70;6.30;;;13.30;99.90;;;;;;4910192;29;20130;-64
2022/10/26 09:04:43;;;;;;;12.27;6.50;;;13.50;99.90;;;;;;4923546;29;20208;-64
2022/10/26 09:07:41;;;;;;;11.95;6.28;;;13.60;99.90;;;;;;4909134;29;20111;-65
2022/10/26 09:10:29;;;;;;;9.70;5.75;;;13.90;99.90;;;;;;4892792;29;20092;-64
2022/10/26 09:13:03;;;;;;;9.07;5.10;;;14.00;99.90;;;;;;4909043;29;20071;-65
2022/10/26 09:15:47;;;;;;;8.63;5.10;;;14.00;99.90;;;;;;4909118;29;20094;-64
2022/10/26 09:18:52;;;;;;;7.50;4.97;;;14.10;99.90;;;;;;4909556;29;20467;-65
2022/10/26 09:21:38;;;;;;;3.58;2.50;;;14.60;99.90;;;;;;4909334;29;20396;-65
2022/10/26 09:24:06;;;;;;;7.20;4.15;;;14.70;99.90;;;;;;4892253;29;20968;-64
2022/10/26 09:26:47;;;;;;;6.25;4.43;;;15.40;99.90;;;;;;4908485;29;20134;-64
2022/10/26 09:29:13;;;;;;;6.82;3.58;;;15.70;99.90;;;;;;4892528;29;20051;-64
2022/10/26 09:31:43;;;;;;;7.32;3.72;;;15.90;99.90;;;;;;4908147;29;20060;-65
2022/10/26 09:34:23;;;;;;;5.40;3.50;;;16.00;99.90;;;;;;4909063;29;20119;-65
2022/10/26 09:36:53;;;;;;;5.40;3.47;;;15.90;99.90;;;;;;4908623;29;20203;-65
2022/10/26 09:39:50;;;;;;;5.15;3.00;;;16.10;99.90;;;;;;4891611;29;20091;-64
2022/10/26 09:42:39;;;;;;;7.18;3.50;;;16.00;99.90;;;;;;4895142;29;20066;-65
2022/10/26 09:45:40;;;;;;;5.82;3.15;;;15.90;99.90;;;;;;4908328;29;20060;-65
2022/10/26 09:48:21;;;;;;;8.23;3.50;;;15.80;99.90;;;;;;4905698;29;20092;-65
2022/10/26 09:50:48;;;;;;;10.50;3.90;;;16.00;99.90;;;;;;4908653;29;20052;-64
2022/10/26 09:53:15;;;;;;;6.05;3.10;;;16.60;99.90;;;;;;4891603;29;20067;-65
2022/10/26 09:55:44;;;;;;;7.68;3.20;;;16.80;99.90;;;;;;4908117;29;20140;-65
2022/10/26 09:58:20;;;;;;;6.00;3.05;;;16.70;99.90;;;;;;4891495;29;20369;-64
2022/10/26 10:00:46;;;;;;;4.10;2.42;;;17.10;99.90;;;;;;4907920;29;20150;-65
2022/10/26 10:03:20;;;;;;;7.13;3.00;;;17.10;99.90;;;;;;4908741;29;20059;-65
2022/10/26 10:05:46;;;;;;;5.70;2.63;;;16.90;99.90;;;;;;4908177;29;20065;-66
2022/10/26 10:08:19;;;;;;;7.38;2.70;;;17.10;99.90;;;;;;4908846;29;20744;-64
2022/10/26 10:11:00;;;;;;;6.78;2.95;;;17.40;99.90;;;;;;4908718;29;20123;-65
2022/10/26 10:13:38;;;;;;;5.07;2.45;;;17.30;99.90;;;;;;4907590;29;20058;-64
2022/10/26 10:16:10;;;;;;;6.30;2.50;;;17.40;99.90;;;;;;4907206;29;20164;-64
2022/10/26 10:18:37;;;;;;;7.63;2.90;;;16.90;99.90;;;;;;4907955;29;20044;-65
2022/10/26 10:21:04;;;;;;;4.10;2.53;;;17.20;99.90;;;;;;4908364;29;20052;-65
2022/10/26 10:23:48;;;;;;;5.40;1.90;;;17.10;99.90;;;;;;4907919;29;20080;-65
2022/10/26 10:26:14;;;;;;;12.30;2.70;;;17.00;99.90;;;;;;4907539;29;20407;-64
2022/10/26 10:28:41;;;;;;;7.47;2.38;;;17.10;99.90;;;;;;4907716;29;20048;-65
2022/10/26 10:31:36;;;;;;;4.18;2.42;;;16.50;99.90;;;;;;4907561;29;20400;-65
2022/10/26 10:34:15;;;;;;;4.97;2.63;;;16.70;99.90;;;;;;4882444;29;20165;-65
2022/10/26 10:36:41;;;;;;;5.43;2.72;;;16.60;99.90;;;;;;4907511;29;20067;-65
2022/10/26 10:39:30;;;;;;;5.53;3.35;;;17.10;99.90;;;;;;4890603;29;20044;-65
2022/10/26 10:41:56;;;;;;;6.22;2.53;;;17.20;99.90;;;;;;4907534;29;20052;-65
2022/10/26 10:44:28;;;;;;;6.30;2.80;;;17.00;99.90;;;;;;4890190;29;20055;-64
2022/10/26 10:47:02;;;;;;;6.53;2.80;;;16.90;99.90;;;;;;4907124;29;20076;-69
2022/10/26 10:49:29;;;;;;;6.47;3.10;;;16.80;99.90;;;;;;4890554;29;20056;-66
2022/10/26 10:51:56;;;;;;;5.38;2.95;;;16.80;99.90;;;;;;4907622;29;20052;-65
2022/10/26 10:54:35;;;;;;;6.15;2.30;;;16.80;99.90;;;;;;4907611;29;20058;-65
2022/10/26 10:57:19;;;;;;;5.28;2.63;;;16.90;99.90;;;;;;4906716;29;20309;-65
2022/10/26 10:59:55;;;;;;;6.00;2.90;;;17.00;99.90;;;;;;4908023;29;20369;-65
2022/10/26 11:02:51;;;;;;;5.07;2.42;;;17.10;99.90;;;;;;4905728;29;20296;-66
2022/10/26 11:05:51;;;;;;;4.63;2.30;;;16.90;99.90;;;;;;4906864;29;20048;-65
2022/10/26 11:08:34;;;;;;;6.45;3.22;;;16.80;99.90;;;;;;4906736;29;20052;-65
2022/10/26 11:11:19;;;;;;;7.30;2.70;;;16.90;99.90;;;;;;4905590;29;20044;-65
2022/10/26 11:13:56;;;;;;;4.55;2.60;;;16.90;99.90;;;;;;4890263;29;20516;-65
2022/10/26 11:16:29;;;;;;;6.07;2.60;;;16.90;99.90;;;;;;4905803;29;20063;-65
2022/10/26 11:19:03;;;;;;;4.43;2.58;;;17.00;99.90;;;;;;4907300;29;20055;-65
2022/10/26 11:21:32;;;;;;;7.75;3.28;;;17.40;99.90;;;;;;4907061;29;20127;-65
2022/10/26 11:24:09;;;;;;;7.35;2.70;;;17.10;99.90;;;;;;4906961;29;20460;-65
2022/10/26 11:27:15;;;;;;;5.93;2.92;;;17.10;99.90;;;;;;4906259;29;20131;-65
2022/10/26 11:30:12;;;;;;;3.38;2.28;;;17.20;99.90;;;;;;4889067;29;20060;-65
2022/10/26 11:33:01;;;;;;;6.40;2.40;;;17.40;99.90;;;;;;4906271;29;20052;-64
2022/10/26 11:36:07;;;;;;;4.05;2.17;;;17.50;99.90;;;;;;4905129;29;20578;-65
2022/10/26 11:38:49;;;;;;;6.13;2.00;;;17.50;99.90;;;;;;4889178;29;20126;-64
2022/10/26 11:41:30;;;;;;;6.43;2.47;;;17.60;99.90;;;;;;4905995;29;20466;-65
2022/10/26 11:44:18;;;;;;;5.82;2.70;;;17.60;99.90;;;;;;4905057;29;20048;-67
2022/10/26 11:46:49;;;;;;;5.40;2.00;;;17.80;99.90;;;;;;4904986;29;20048;-65
2022/10/26 11:49:41;;;;;;;6.93;2.50;;;17.60;99.90;;;;;;4888540;29;20115;-64
2022/10/26 11:52:23;;;;;;;6.15;2.20;;;17.80;99.90;;;;;;4907004;29;20044;-63
2022/10/26 11:54:54;;;;;;;5.15;2.33;;;18.00;99.90;;;;;;4906390;29;20202;-64
2022/10/26 11:57:22;;;;;;;9.73;2.70;;;18.10;99.90;;;;;;4907147;29;20135;-66
2022/10/26 11:59:57;;;;;;;4.93;2.53;;;18.40;99.90;;;;;;4906727;29;20472;-64
2022/10/26 12:02:24;;;;;;;;;;;18.60;99.90;;;;;;4907106;29;20048;-64
2022/10/26 12:05:15;;;;;;;5.40;2.22;;;18.50;99.90;;;;;;4906817;29;19915;-64
2022/10/26 12:07:45;;;;;;;7.60;3.10;;;18.30;99.90;;;;;;4898706;29;20056;-64
2022/10/26 12:10:20;;;;;;;6.80;2.50;;;18.40;99.90;;;;;;4906392;29;20044;-65
2022/10/26 12:12:53;;;;;;;7.43;2.70;;;18.60;99.90;;;;;;4905290;29;20062;-65
2022/10/26 12:15:32;;;;;;;7.78;2.92;;;18.60;99.90;;;;;;4906000;29;20443;-65
2022/10/26 12:18:15;;;;;;;17.90;3.30;;;18.50;99.90;;;;;;4889668;29;20064;-65
2022/10/26 12:20:47;;;;;;;12.48;3.28;;;18.70;99.90;;;;;;4892346;29;20407;-65
2022/10/26 12:23:13;;;;;;;6.47;2.60;;;18.70;99.90;;;;;;4892806;29;20083;-65
2022/10/26 12:25:39;;;;;;;4.53;2.40;;;18.80;99.90;;;;;;4909608;29;20052;-68
2022/10/26 12:28:24;;;;;;;4.85;2.70;;;18.80;99.90;;;;;;4910084;29;20044;-66
2022/10/26 12:30:50;;;;;;;6.38;2.55;;;18.90;99.90;;;;;;4909250;29;20694;-66
2022/10/26 12:33:29;;;;;;;7.70;2.83;;;18.90;99.90;;;;;;4909559;29;20044;-66
2022/10/26 12:35:55;;;;;;;10.05;3.75;;;18.90;99.90;;;;;;4910082;29;20068;-68
2022/10/26 12:38:26;;;;;;;6.30;2.78;;;18.90;99.90;;;;;;4910041;29;20056;-65
2022/10/26 12:41:19;;;;;;;7.45;2.40;;;18.90;99.90;;;;;;4910289;29;20452;-66
2022/10/26 12:43:45;;;;;;;5.80;2.50;;;18.80;99.90;;;;;;4904418;29;20107;-65
2022/10/26 12:46:11;;;;;;;5.57;2.40;;;18.90;99.90;;;;;;4909180;29;20043;-66
2022/10/26 12:48:48;;;;;;;3.47;1.80;;;18.60;99.90;;;;;;4909582;29;20519;-66
2022/10/26 12:51:23;;;;;;;7.38;2.80;;;18.60;99.90;;;;;;4909058;29;20088;-66
2022/10/26 12:54:01;;;;;;;6.43;2.40;;;18.40;99.90;;;;;;4909891;29;20048;-65
2022/10/26 12:56:34;;;;;;;4.80;2.17;;;18.40;99.90;;;;;;4909496;29;20055;-67
2022/10/26 12:59:08;;;;;;;5.47;2.33;;;18.40;99.90;;;;;;4909904;29;20052;-66
2022/10/26 13:01:55;;;;;;;7.15;3.03;;;18.50;99.90;;;;;;4908788;29;20040;-66
2022/10/26 13:04:51;;;;;;;6.32;2.67;;;18.60;99.90;;;;;;4909257;29;20119;-65